sensor_id;sensor_type;location;lat;lon;timestamp;pressure;altitude;pressure_sealevel;temperature;humidity
73858;BME280;62195;55.030;73.278;2022-07-29T00:01:27;99274.88;;;17.29;100.00
73858;BME280;62195;55.030;73.278;2022-07-29T00:03:53;99271.09;;;17.32;100.00
73858;BME280;62195;55.030;73.278;2022-07-29T00:06:21;99269.00;;;17.35;100.00
73858;BME280;62195;55.030;73.278;2022-07-29T00:08:47;99264.38;;;17.37;100.00
73858;BME280;62195;55.030;73.278;2022-07-29T00:11:22;99258.94;;;17.39;100.00
73858;BME280;62195;55.030;73.278;2022-07-29T00:13:48;99250.84;;;17.41;100.00
73858;BME280;62195;55.030;73.278;2022-07-29T00:16:20;99251.28;;;17.46;100.00
73858;BME280;62195;55.030;73.278;2022-07-29T00:18:46;99250.97;;;17.49;100.00
73858;BME280;62195;55.030;73.278;2022-07-29T00:21:18;99250.97;;;17.49;100.00
73858;BME280;62195;55.030;73.278;2022-07-29T00:23:48;99257.13;;;17.49;100.00
73858;BME280;62195;55.030;73.278;2022-07-29T00:26:15;99261.31;;;17.52;100.00
73858;BME280;62195;55.030;73.278;2022-07-29T00:28:41;99267.44;;;17.52;100.00
73858;BME280;62195;55.030;73.278;2022-07-29T00:31:08;99273.59;;;17.53;100.00
73858;BME280;62195;55.030;73.278;2022-07-29T00:33:37;99269.28;;;17.52;100.00
73858;BME280;62195;55.030;73.278;2022-07-29T00:36:03;99281.25;;;17.56;100.00
73858;BME280;62195;55.030;73.278;2022-07-29T00:38:29;99286.56;;;17.56;100.00
73858;BME280;62195;55.030;73.278;2022-07-29T00:40:56;99281.97;;;17.58;100.00
73858;BME280;62195;55.030;73.278;2022-07-29T00:43:27;99284.78;;;17.57;100.00
73858;BME280;62195;55.030;73.278;2022-07-29T00:45:53;99290.06;;;17.57;100.00
73858;BME280;62195;55.030;73.278;2022-07-29T00:48:24;99300.94;;;17.54;100.00
73858;BME280;62195;55.030;73.278;2022-07-29T00:50:51;99303.19;;;17.48;100.00
73858;BME280;62195;55.030;73.278;2022-07-29T00:53:19;99295.53;;;17.45;100.00
73858;BME280;62195;55.030;73.278;2022-07-29T00:55:47;99293.28;;;17.41;100.00
73858;BME280;62195;55.030;73.278;2022-07-29T00:58:18;99298.59;;;17.41;100.00
73858;BME280;62195;55.030;73.278;2022-07-29T01:00:44;99292.72;;;17.37;100.00
73858;BME280;62195;55.030;73.278;2022-07-29T01:03:10;99290.06;;;17.27;100.00
73858;BME280;62195;55.030;73.278;2022-07-29T01:05:42;99295.38;;;17.27;100.00
73858;BME280;62195;55.030;73.278;2022-07-29T01:08:12;99290.34;;;17.24;100.00
73858;BME280;62195;55.030;73.278;2022-07-29T01:10:40;99291.47;;;17.21;100.00
73858;BME280;62195;55.030;73.278;2022-07-29T01:13:09;99295.09;;;17.20;100.00
73858;BME280;62195;55.030;73.278;2022-07-29T01:15:47;99292.56;;;17.19;100.00
73858;BME280;62195;55.030;73.278;2022-07-29T01:18:27;99292.84;;;17.16;100.00
73858;BME280;62195;55.030;73.278;2022-07-29T01:24:11;99300.09;;;17.14;100.00
73858;BME280;62195;55.030;73.278;2022-07-29T01:29:29;99305.66;;;17.10;100.00
73858;BME280;62195;55.030;73.278;2022-07-29T01:32:02;99308.47;;;17.09;100.00
73858;BME280;62195;55.030;73.278;2022-07-29T01:37:42;99314.47;;;17.11;100.00
73858;BME280;62195;55.030;73.278;2022-07-29T01:40:13;99312.63;;;17.11;100.00
73858;BME280;62195;55.030;73.278;2022-07-29T01:42:50;99309.59;;;17.06;100.00
73858;BME280;62195;55.030;73.278;2022-07-29T01:45:19;99314.59;;;17.09;100.00
73858;BME280;62195;55.030;73.278;2022-07-29T01:50:17;99314.59;;;17.09;100.00
73858;BME280;62195;55.030;73.278;2022-07-29T01:52:55;99328.41;;;17.13;100.00
73858;BME280;62195;55.030;73.278;2022-07-29T01:55:27;99324.09;;;17.12;100.00
73858;BME280;62195;55.030;73.278;2022-07-29T01:57:56;99323.25;;;17.11;100.00
73858;BME280;62195;55.030;73.278;2022-07-29T02:00:23;99332.91;;;17.13;100.00
73858;BME280;62195;55.030;73.278;2022-07-29T02:02:51;99338.91;;;17.15;100.00
73858;BME280;62195;55.030;73.278;2022-07-29T02:05:21;99341.28;;;17.18;100.00
73858;BME280;62195;55.030;73.278;2022-07-29T02:07:49;99335.25;;;17.16;100.00
73858;BME280;62195;55.030;73.278;2022-07-29T02:10:19;99331.06;;;17.13;100.00
73858;BME280;62195;55.030;73.278;2022-07-29T02:12:48;99331.19;;;17.11;100.00
73858;BME280;62195;55.030;73.278;2022-07-29T02:15:22;99328.53;;;17.11;100.00
73858;BME280;62195;55.030;73.278;2022-07-29T02:17:54;99344.47;;;17.11;100.00
73858;BME280;62195;55.030;73.278;2022-07-29T02:20:24;99348.94;;;17.11;100.00
73858;BME280;62195;55.030;73.278;2022-07-29T02:22:57;99350.19;;;17.07;100.00
73858;BME280;62195;55.030;73.278;2022-07-29T02:25:26;99357.59;;;17.13;100.00
73858;BME280;62195;55.030;73.278;2022-07-29T02:27:54;99356.47;;;17.16;100.00
73858;BME280;62195;55.030;73.278;2022-07-29T02:30:26;99345.31;;;17.12;100.00
73858;BME280;62195;55.030;73.278;2022-07-29T02:33:03;99336.25;;;17.15;100.00
73858;BME280;62195;55.030;73.278;2022-07-29T02:35:30;99344.06;;;17.16;100.00
73858;BME280;62195;55.030;73.278;2022-07-29T02:37:57;99338.63;;;17.18;100.00
73858;BME280;62195;55.030;73.278;2022-07-29T02:40:42;99335.81;;;17.19;100.00
73858;BME280;62195;55.030;73.278;2022-07-29T02:43:14;99331.78;;;17.15;100.00
73858;BME280;62195;55.030;73.278;2022-07-29T02:45:52;99338.09;;;17.24;100.00
73858;BME280;62195;55.030;73.278;2022-07-29T02:48:32;99321.88;;;17.27;100.00
73858;BME280;62195;55.030;73.278;2022-07-29T02:51:18;99341.44;;;17.26;100.00
73858;BME280;62195;55.030;73.278;2022-07-29T02:53:53;99323.28;;;17.31;100.00
73858;BME280;62195;55.030;73.278;2022-07-29T02:56:31;99330.28;;;17.32;100.00
73858;BME280;62195;55.030;73.278;2022-07-29T02:59:10;99320.50;;;17.33;100.00
73858;BME280;62195;55.030;73.278;2022-07-29T03:01:40;99335.03;;;17.38;100.00
73858;BME280;62195;55.030;73.278;2022-07-29T03:04:09;99331.38;;;17.40;100.00
73858;BME280;62195;55.030;73.278;2022-07-29T03:06:48;99339.22;;;17.41;100.00
73858;BME280;62195;55.030;73.278;2022-07-29T03:09:17;99335.88;;;17.39;100.00
73858;BME280;62195;55.030;73.278;2022-07-29T03:11:44;99339.09;;;17.43;100.00
73858;BME280;62195;55.030;73.278;2022-07-29T03:14:19;99343.41;;;17.44;100.00
73858;BME280;62195;55.030;73.278;2022-07-29T03:16:46;99327.50;;;17.44;100.00
73858;BME280;62195;55.030;73.278;2022-07-29T03:19:13;99325.81;;;17.43;100.00
73858;BME280;62195;55.030;73.278;2022-07-29T03:21:51;99318.53;;;17.45;100.00
73858;BME280;62195;55.030;73.278;2022-07-29T03:24:25;99324.00;;;17.43;100.00
73858;BME280;62195;55.030;73.278;2022-07-29T03:26:51;99328.47;;;17.43;100.00
73858;BME280;62195;55.030;73.278;2022-07-29T03:29:17;99325.94;;;17.41;100.00
73858;BME280;62195;55.030;73.278;2022-07-29T03:31:43;99327.78;;;17.41;100.00
73858;BME280;62195;55.030;73.278;2022-07-29T03:34:09;99329.72;;;17.38;100.00
73858;BME280;62195;55.030;73.278;2022-07-29T03:36:36;99329.03;;;17.36;100.00
73858;BME280;62195;55.030;73.278;2022-07-29T03:39:03;99322.06;;;17.35;100.00
73858;BME280;62195;55.030;73.278;2022-07-29T03:41:30;99321.31;;;17.33;100.00
73858;BME280;62195;55.030;73.278;2022-07-29T03:43:58;99319.53;;;17.34;100.00
73858;BME280;62195;55.030;73.278;2022-07-29T03:46:26;99321.31;;;17.33;100.00
73858;BME280;62195;55.030;73.278;2022-07-29T03:48:59;99320.78;;;17.30;100.00
73858;BME280;62195;55.030;73.278;2022-07-29T03:51:26;99323.84;;;17.35;100.00
73858;BME280;62195;55.030;73.278;2022-07-29T03:53:52;99319.41;;;17.35;100.00
73858;BME280;62195;55.030;73.278;2022-07-29T03:56:24;99314.78;;;17.37;100.00
73858;BME280;62195;55.030;73.278;2022-07-29T03:58:52;99298.88;;;17.37;100.00
73858;BME280;62195;55.030;73.278;2022-07-29T04:01:19;99307.94;;;17.45;100.00
73858;BME280;62195;55.030;73.278;2022-07-29T04:03:46;99304.34;;;17.46;100.00
73858;BME280;62195;55.030;73.278;2022-07-29T04:06:12;99307.66;;;17.48;100.00
73858;BME280;62195;55.030;73.278;2022-07-29T04:08:38;99322.91;;;17.46;100.00
73858;BME280;62195;55.030;73.278;2022-07-29T04:11:12;99317.16;;;17.41;100.00
73858;BME280;62195;55.030;73.278;2022-07-29T04:13:39;99321.75;;;17.38;100.00
73858;BME280;62195;55.030;73.278;2022-07-29T04:16:05;99316.44;;;17.38;100.00
73858;BME280;62195;55.030;73.278;2022-07-29T04:18:31;99310.31;;;17.38;100.00
73858;BME280;62195;55.030;73.278;2022-07-29T04:20:57;99292.88;;;17.35;100.00
73858;BME280;62195;55.030;73.278;2022-07-29T04:23:27;99306.41;;;17.32;100.00
73858;BME280;62195;55.030;73.278;2022-07-29T04:25:58;99298.88;;;17.28;100.00
73858;BME280;62195;55.030;73.278;2022-07-29T04:28:24;99300.41;;;17.20;100.00
73858;BME280;62195;55.030;73.278;2022-07-29T04:30:51;99301.22;;;17.21;100.00
73858;BME280;62195;55.030;73.278;2022-07-29T04:33:17;99298.00;;;17.27;100.00
73858;BME280;62195;55.030;73.278;2022-07-29T04:35:43;99296.91;;;17.40;100.00
73858;BME280;62195;55.030;73.278;2022-07-29T04:38:14;99301.53;;;17.57;100.00
73858;BME280;62195;55.030;73.278;2022-07-29T04:40:41;99294.81;;;17.73;100.00
73858;BME280;62195;55.030;73.278;2022-07-29T04:43:07;99280.56;;;17.74;100.00
73858;BME280;62195;55.030;73.278;2022-07-29T04:45:33;99304.72;;;18.00;100.00
73858;BME280;62195;55.030;73.278;2022-07-29T04:47:59;99308.75;;;18.14;100.00
73858;BME280;62195;55.030;73.278;2022-07-29T04:50:25;99316.84;;;18.23;100.00
73858;BME280;62195;55.030;73.278;2022-07-29T04:52:51;99308.28;;;18.29;100.00
73858;BME280;62195;55.030;73.278;2022-07-29T04:55:18;99312.06;;;18.36;100.00
73858;BME280;62195;55.030;73.278;2022-07-29T04:57:44;99311.16;;;18.45;100.00
73858;BME280;62195;55.030;73.278;2022-07-29T05:00:10;99319.53;;;18.51;100.00
73858;BME280;62195;55.030;73.278;2022-07-29T05:02:37;99318.97;;;18.57;100.00
73858;BME280;62195;55.030;73.278;2022-07-29T05:05:03;99318.97;;;18.57;100.00
73858;BME280;62195;55.030;73.278;2022-07-29T05:07:29;99304.41;;;18.61;100.00
73858;BME280;62195;55.030;73.278;2022-07-29T05:09:56;99311.09;;;18.65;100.00
73858;BME280;62195;55.030;73.278;2022-07-29T05:12:23;99304.50;;;18.69;100.00
73858;BME280;62195;55.030;73.278;2022-07-29T05:14:50;99312.47;;;18.69;100.00
73858;BME280;62195;55.030;73.278;2022-07-29T05:17:17;99311.34;;;18.72;100.00
73858;BME280;62195;55.030;73.278;2022-07-29T05:19:43;99313.56;;;18.77;100.00
73858;BME280;62195;55.030;73.278;2022-07-29T05:22:09;99305.59;;;18.77;100.00
73858;BME280;62195;55.030;73.278;2022-07-29T05:24:35;99314.13;;;18.80;100.00
73858;BME280;62195;55.030;73.278;2022-07-29T05:27:02;99316.31;;;18.85;100.00
73858;BME280;62195;55.030;73.278;2022-07-29T05:29:28;99316.19;;;18.87;100.00
73858;BME280;62195;55.030;73.278;2022-07-29T05:31:54;99323.63;;;18.83;100.00
73858;BME280;62195;55.030;73.278;2022-07-29T05:34:20;99310.59;;;18.80;100.00
73858;BME280;62195;55.030;73.278;2022-07-29T05:36:46;99316.31;;;18.85;100.00
73858;BME280;62195;55.030;73.278;2022-07-29T05:39:12;99319.66;;;18.87;100.00
73858;BME280;62195;55.030;73.278;2022-07-29T05:41:39;99320.91;;;18.93;100.00
73858;BME280;62195;55.030;73.278;2022-07-29T05:44:05;99323.25;;;19.06;100.00
73858;BME280;62195;55.030;73.278;2022-07-29T05:46:32;99317.00;;;19.15;100.00
73858;BME280;62195;55.030;73.278;2022-07-29T05:49:01;99313.47;;;19.24;100.00
73858;BME280;62195;55.030;73.278;2022-07-29T05:51:29;99325.88;;;19.34;100.00
73858;BME280;62195;55.030;73.278;2022-07-29T05:54:04;99320.94;;;19.39;100.00
73858;BME280;62195;55.030;73.278;2022-07-29T05:56:30;99327.31;;;19.46;100.00
73858;BME280;62195;55.030;73.278;2022-07-29T05:58:57;99326.84;;;19.51;100.00
73858;BME280;62195;55.030;73.278;2022-07-29T06:01:23;99331.34;;;19.50;100.00
73858;BME280;62195;55.030;73.278;2022-07-29T06:03:49;99327.69;;;19.51;100.00
73858;BME280;62195;55.030;73.278;2022-07-29T06:06:15;99331.34;;;19.50;100.00
73858;BME280;62195;55.030;73.278;2022-07-29T06:08:41;99329.06;;;19.56;100.00
73858;BME280;62195;55.030;73.278;2022-07-29T06:11:13;99335.31;;;19.64;100.00
73858;BME280;62195;55.030;73.278;2022-07-29T06:13:42;99333.94;;;19.78;100.00
73858;BME280;62195;55.030;73.278;2022-07-29T06:16:08;99331.03;;;19.90;100.00
73858;BME280;62195;55.030;73.278;2022-07-29T06:18:34;99339.63;;;20.02;100.00
73858;BME280;62195;55.030;73.278;2022-07-29T06:21:01;99341.56;;;20.18;100.00
73858;BME280;62195;55.030;73.278;2022-07-29T06:23:38;99345.66;;;20.30;100.00
73858;BME280;62195;55.030;73.278;2022-07-29T06:26:04;99345.06;;;20.45;100.00
73858;BME280;62195;55.030;73.278;2022-07-29T06:28:32;99346.13;;;20.52;100.00
73858;BME280;62195;55.030;73.278;2022-07-29T06:30:58;99342.13;;;20.56;100.00
73858;BME280;62195;55.030;73.278;2022-07-29T06:33:25;99348.81;;;20.61;100.00
73858;BME280;62195;55.030;73.278;2022-07-29T06:35:51;99344.84;;;20.65;99.37
73858;BME280;62195;55.030;73.278;2022-07-29T06:38:17;99338.72;;;20.73;99.33
73858;BME280;62195;55.030;73.278;2022-07-29T06:40:45;99342.25;;;20.81;98.68
73858;BME280;62195;55.030;73.278;2022-07-29T06:43:49;99345.31;;;20.87;97.85
73858;BME280;62195;55.030;73.278;2022-07-29T06:46:17;99343.66;;;20.94;98.60
73858;BME280;62195;55.030;73.278;2022-07-29T06:48:45;99330.66;;;20.99;98.78
73858;BME280;62195;55.030;73.278;2022-07-29T06:51:23;99338.69;;;21.07;99.23
73858;BME280;62195;55.030;73.278;2022-07-29T06:53:51;99341.91;;;21.19;99.14
73858;BME280;62195;55.030;73.278;2022-07-29T06:56:17;99335.41;;;21.30;98.89
73858;BME280;62195;55.030;73.278;2022-07-29T06:58:44;99341.94;;;21.44;97.85
73858;BME280;62195;55.030;73.278;2022-07-29T07:01:10;99340.47;;;21.58;98.44
73858;BME280;62195;55.030;73.278;2022-07-29T07:03:36;99342.00;;;21.77;97.83
73858;BME280;62195;55.030;73.278;2022-07-29T07:06:02;99342.53;;;21.89;98.01
73858;BME280;62195;55.030;73.278;2022-07-29T07:08:29;99328.81;;;21.92;96.97
73858;BME280;62195;55.030;73.278;2022-07-29T07:10:55;99340.00;;;22.13;97.51
73858;BME280;62195;55.030;73.278;2022-07-29T07:13:23;99346.53;;;22.10;96.51
73858;BME280;62195;55.030;73.278;2022-07-29T07:15:53;99344.50;;;22.04;96.62
73858;BME280;62195;55.030;73.278;2022-07-29T07:18:19;99347.19;;;21.96;96.65
73858;BME280;62195;55.030;73.278;2022-07-29T07:20:45;99332.63;;;22.07;95.75
73858;BME280;62195;55.030;73.278;2022-07-29T07:23:12;99342.16;;;22.17;94.84
73858;BME280;62195;55.030;73.278;2022-07-29T07:25:38;99335.63;;;22.28;93.93
73858;BME280;62195;55.030;73.278;2022-07-29T07:28:04;99344.44;;;22.37;93.89
73858;BME280;62195;55.030;73.278;2022-07-29T07:30:30;99330.38;;;22.52;94.18
73858;BME280;62195;55.030;73.278;2022-07-29T07:32:56;99326.38;;;22.64;94.56
73858;BME280;62195;55.030;73.278;2022-07-29T07:35:24;99326.47;;;22.79;92.30
73858;BME280;62195;55.030;73.278;2022-07-29T07:37:52;99334.47;;;22.88;92.70
73858;BME280;62195;55.030;73.278;2022-07-29T07:40:19;99337.47;;;22.93;92.50
73858;BME280;62195;55.030;73.278;2022-07-29T07:42:55;99331.03;;;23.02;92.39
73858;BME280;62195;55.030;73.278;2022-07-29T07:45:27;99332.97;;;23.17;91.71
73858;BME280;62195;55.030;73.278;2022-07-29T07:47:53;99330.75;;;23.29;90.85
73858;BME280;62195;55.030;73.278;2022-07-29T07:50:25;99328.88;;;23.37;89.86
73858;BME280;62195;55.030;73.278;2022-07-29T07:52:53;99329.59;;;23.55;90.37
73858;BME280;62195;55.030;73.278;2022-07-29T07:55:29;99319.38;;;23.73;90.40
73858;BME280;62195;55.030;73.278;2022-07-29T07:57:55;99322.22;;;23.95;92.99
73858;BME280;62195;55.030;73.278;2022-07-29T08:00:22;99317.88;;;23.94;89.19
73858;BME280;62195;55.030;73.278;2022-07-29T08:02:48;99326.31;;;23.91;87.29
73858;BME280;62195;55.030;73.278;2022-07-29T08:05:15;99330.53;;;23.85;87.12
73858;BME280;62195;55.030;73.278;2022-07-29T08:07:46;99326.47;;;23.89;86.59
73858;BME280;62195;55.030;73.278;2022-07-29T08:10:19;99319.91;;;23.92;86.24
73858;BME280;62195;55.030;73.278;2022-07-29T08:13:05;99311.78;;;24.00;85.07
73858;BME280;62195;55.030;73.278;2022-07-29T08:15:32;99313.41;;;24.10;85.92
73858;BME280;62195;55.030;73.278;2022-07-29T08:17:58;99307.50;;;24.14;83.79
73858;BME280;62195;55.030;73.278;2022-07-29T08:20:25;99324.59;;;24.13;85.28
73858;BME280;62195;55.030;73.278;2022-07-29T08:22:51;99319.09;;;24.07;83.69
73858;BME280;62195;55.030;73.278;2022-07-29T08:25:18;99315.72;;;24.13;83.84
73858;BME280;62195;55.030;73.278;2022-07-29T09:07:35;99320.16;;;24.96;80.44
73858;BME280;62195;55.030;73.278;2022-07-29T09:10:02;99306.88;;;24.88;79.38
73858;BME280;62195;55.030;73.278;2022-07-29T09:12:30;99309.53;;;24.73;79.96
73858;BME280;62195;55.030;73.278;2022-07-29T09:14:57;99319.72;;;24.62;81.33
73858;BME280;62195;55.030;73.278;2022-07-29T09:17:45;99328.16;;;24.44;81.37
73858;BME280;62195;55.030;73.278;2022-07-29T09:20:22;99327.59;;;24.34;81.42
73858;BME280;62195;55.030;73.278;2022-07-29T09:22:49;99319.44;;;24.27;80.89
73858;BME280;62195;55.030;73.278;2022-07-29T09:25:38;99327.19;;;24.22;82.68
73858;BME280;62195;55.030;73.278;2022-07-29T09:28:15;99316.28;;;24.23;81.98
73858;BME280;62195;55.030;73.278;2022-07-29T09:30:56;99322.03;;;24.20;82.47
73858;BME280;62195;55.030;73.278;2022-07-29T09:33:31;99320.00;;;24.22;81.71
73858;BME280;62195;55.030;73.278;2022-07-29T09:36:05;99303.91;;;24.22;81.63
73858;BME280;62195;55.030;73.278;2022-07-29T09:38:37;99300.56;;;24.50;80.91
73858;BME280;62195;55.030;73.278;2022-07-29T09:41:07;99303.91;;;24.82;80.90
73858;BME280;62195;55.030;73.278;2022-07-29T09:43:37;99308.53;;;24.89;82.78
73858;BME280;62195;55.030;73.278;2022-07-29T09:46:23;99283.75;;;24.56;82.05
73858;BME280;62195;55.030;73.278;2022-07-29T09:49:15;99329.78;;;24.75;82.35
73858;BME280;62195;55.030;73.278;2022-07-29T09:52:16;99233.44;;;23.98;85.35
73858;BME280;62195;55.030;73.278;2022-07-29T09:55:23;99316.78;;;24.57;83.94
73858;BME280;62195;55.030;73.278;2022-07-29T09:57:51;99318.13;;;24.68;83.01
73858;BME280;62195;55.030;73.278;2022-07-29T10:00:19;99311.84;;;24.76;82.66
73858;BME280;62195;55.030;73.278;2022-07-29T10:02:59;99287.81;;;24.82;81.55
73858;BME280;62195;55.030;73.278;2022-07-29T10:05:30;99307.00;;;25.01;80.78
73858;BME280;62195;55.030;73.278;2022-07-29T10:08:06;99299.16;;;25.00;80.33
73858;BME280;62195;55.030;73.278;2022-07-29T10:10:37;99305.97;;;25.02;80.96
73858;BME280;62195;55.030;73.278;2022-07-29T10:13:13;99302.53;;;25.08;80.20
73858;BME280;62195;55.030;73.278;2022-07-29T10:15:41;99325.56;;;25.18;79.91
73858;BME280;62195;55.030;73.278;2022-07-29T10:18:13;99302.84;;;24.98;80.50
73858;BME280;62195;55.030;73.278;2022-07-29T10:20:43;99318.78;;;25.00;78.97
73858;BME280;62195;55.030;73.278;2022-07-29T10:23:09;99333.72;;;24.88;79.38
73858;BME280;62195;55.030;73.278;2022-07-29T10:25:35;99324.81;;;24.72;79.95
73858;BME280;62195;55.030;73.278;2022-07-29T10:28:02;99310.84;;;24.62;80.00
73858;BME280;62195;55.030;73.278;2022-07-29T10:30:30;99321.28;;;24.56;79.59
73858;BME280;62195;55.030;73.278;2022-07-29T10:33:18;99318.88;;;24.62;80.94
73858;BME280;62195;55.030;73.278;2022-07-29T10:44:13;99312.75;;;24.98;78.85
73858;BME280;62195;55.030;73.278;2022-07-29T10:46:40;99299.00;;;24.86;78.32
73858;BME280;62195;55.030;73.278;2022-07-29T10:52:03;99317.47;;;24.81;82.16
73858;BME280;62195;55.030;73.278;2022-07-29T10:59:43;99266.19;;;24.39;78.30
73858;BME280;62195;55.030;73.278;2022-07-29T11:05:04;99319.09;;;24.90;77.93
73858;BME280;62195;55.030;73.278;2022-07-29T11:07:32;99321.75;;;24.90;77.63
73858;BME280;62195;55.030;73.278;2022-07-29T11:15:21;99323.78;;;24.73;78.80
73858;BME280;62195;55.030;73.278;2022-07-29T11:20:48;99325.81;;;24.71;79.86
73858;BME280;62195;55.030;73.278;2022-07-29T11:58:47;99323.91;;;24.65;73.15
73858;BME280;62195;55.030;73.278;2022-07-29T12:01:24;99342.41;;;24.60;73.02
73858;BME280;62195;55.030;73.278;2022-07-29T12:04:04;99337.78;;;24.53;71.73
73858;BME280;62195;55.030;73.278;2022-07-29T12:06:37;99344.34;;;24.51;71.87
73858;BME280;62195;55.030;73.278;2022-07-29T12:09:08;99341.84;;;24.49;71.25
73858;BME280;62195;55.030;73.278;2022-07-29T12:11:37;99348.28;;;24.40;70.92
73858;BME280;62195;55.030;73.278;2022-07-29T12:14:31;99354.78;;;24.30;70.71
73858;BME280;62195;55.030;73.278;2022-07-29T12:16:59;99352.44;;;24.27;70.61
73858;BME280;62195;55.030;73.278;2022-07-29T12:19:26;99352.25;;;24.14;71.53
73858;BME280;62195;55.030;73.278;2022-07-29T12:21:54;99359.91;;;24.17;71.13
73858;BME280;62195;55.030;73.278;2022-07-29T12:24:21;99364.53;;;24.08;71.22
73858;BME280;62195;55.030;73.278;2022-07-29T12:26:51;99363.38;;;24.02;70.56
73858;BME280;62195;55.030;73.278;2022-07-29T12:29:23;99367.78;;;23.95;70.07
73858;BME280;62195;55.030;73.278;2022-07-29T12:32:00;99366.19;;;23.86;70.14
73858;BME280;62195;55.030;73.278;2022-07-29T12:34:26;99382.06;;;23.87;71.45
73858;BME280;62195;55.030;73.278;2022-07-29T12:37:00;99381.59;;;23.84;70.07
73858;BME280;62195;55.030;73.278;2022-07-29T12:39:27;99385.31;;;23.83;70.72
73858;BME280;62195;55.030;73.278;2022-07-29T12:41:53;99387.25;;;23.89;70.85
73858;BME280;62195;55.030;73.278;2022-07-29T12:44:20;99397.94;;;23.97;70.00
73858;BME280;62195;55.030;73.278;2022-07-29T12:47:01;99388.19;;;23.96;69.97
73858;BME280;62195;55.030;73.278;2022-07-29T12:49:27;99391.91;;;23.95;70.61
73858;BME280;62195;55.030;73.278;2022-07-29T12:51:53;99393.28;;;23.91;70.51
73858;BME280;62195;55.030;73.278;2022-07-29T12:54:20;99390.31;;;23.86;70.38
73858;BME280;62195;55.030;73.278;2022-07-29T12:56:46;99401.03;;;23.86;71.51
73858;BME280;62195;55.030;73.278;2022-07-29T12:59:20;99412.22;;;23.89;70.44
73858;BME280;62195;55.030;73.278;2022-07-29T13:01:48;99413.03;;;23.90;70.16
73858;BME280;62195;55.030;73.278;2022-07-29T13:04:32;99417.44;;;23.83;69.83
73858;BME280;62195;55.030;73.278;2022-07-29T13:07:07;99416.13;;;23.78;70.01
73858;BME280;62195;55.030;73.278;2022-07-29T13:09:44;99421.56;;;23.70;69.51
73858;BME280;62195;55.030;73.278;2022-07-29T13:12:14;99391.25;;;23.46;70.72
73858;BME280;62195;55.030;73.278;2022-07-29T13:14:43;99427.50;;;23.57;69.67
73858;BME280;62195;55.030;73.278;2022-07-29T13:17:21;99422.53;;;23.46;69.68
73858;BME280;62195;55.030;73.278;2022-07-29T13:19:53;99430.75;;;23.44;69.39
73858;BME280;62195;55.030;73.278;2022-07-29T13:22:30;99441.34;;;23.37;69.99
73858;BME280;62195;55.030;73.278;2022-07-29T13:24:58;99438.16;;;23.34;70.51
73858;BME280;62195;55.030;73.278;2022-07-29T13:48:37;99453.38;;;22.85;69.88
73858;BME280;62195;55.030;73.278;2022-07-29T13:51:04;99455.72;;;22.80;69.97
73858;BME280;62195;55.030;73.278;2022-07-29T13:53:30;99457.75;;;22.78;70.25
73858;BME280;62195;55.030;73.278;2022-07-29T13:55:56;99464.25;;;22.75;69.38
73858;BME280;62195;55.030;73.278;2022-07-29T13:58:22;99454.56;;;22.66;69.61
73858;BME280;62195;55.030;73.278;2022-07-29T14:00:49;99473.13;;;22.67;69.75
73858;BME280;62195;55.030;73.278;2022-07-29T14:03:15;99462.75;;;22.64;70.34
73858;BME280;62195;55.030;73.278;2022-07-29T14:05:42;99462.09;;;22.54;70.40
73858;BME280;62195;55.030;73.278;2022-07-29T14:08:08;99478.16;;;22.54;70.52
73858;BME280;62195;55.030;73.278;2022-07-29T14:10:34;99473.00;;;22.52;71.21
73858;BME280;62195;55.030;73.278;2022-07-29T14:13:07;99471.78;;;22.47;70.90
73858;BME280;62195;55.030;73.278;2022-07-29T14:15:33;99462.59;;;22.41;70.88
73858;BME280;62195;55.030;73.278;2022-07-29T14:17:59;99462.75;;;22.39;71.25
73858;BME280;62195;55.030;73.278;2022-07-29T14:20:25;99460.41;;;22.36;71.00
73858;BME280;62195;55.030;73.278;2022-07-29T14:23:02;99448.72;;;22.29;70.47
73858;BME280;62195;55.030;73.278;2022-07-29T14:25:33;99447.88;;;22.28;71.11
73858;BME280;62195;55.030;73.278;2022-07-29T14:31:38;99455.56;;;22.15;70.76
73858;BME280;62195;55.030;73.278;2022-07-29T14:34:04;99448.22;;;22.09;70.67
73858;BME280;62195;55.030;73.278;2022-07-29T14:36:30;99453.72;;;22.07;70.86
73858;BME280;62195;55.030;73.278;2022-07-29T14:38:57;99444.38;;;22.03;71.63
73858;BME280;62195;55.030;73.278;2022-07-29T14:41:23;99451.38;;;21.96;71.86
73858;BME280;62195;55.030;73.278;2022-07-29T14:43:49;99447.56;;;21.90;72.28
73858;BME280;62195;55.030;73.278;2022-07-29T14:46:15;99454.53;;;21.83;72.46
73858;BME280;62195;55.030;73.278;2022-07-29T14:48:41;99459.72;;;21.76;72.67
73858;BME280;62195;55.030;73.278;2022-07-29T14:51:18;99453.13;;;21.62;72.66
73858;BME280;62195;55.030;73.278;2022-07-29T14:53:44;99459.28;;;21.62;72.59
73858;BME280;62195;55.030;73.278;2022-07-29T14:56:16;99452.94;;;21.55;72.28
73858;BME280;62195;55.030;73.278;2022-07-29T14:58:48;99454.25;;;21.51;72.47
73858;BME280;62195;55.030;73.278;2022-07-29T15:01:14;99448.56;;;21.46;72.25
73858;BME280;62195;55.030;73.278;2022-07-29T15:03:40;99458.22;;;21.38;72.58
73858;BME280;62195;55.030;73.278;2022-07-29T15:06:06;99446.53;;;21.31;72.35
73858;BME280;62195;55.030;73.278;2022-07-29T15:08:32;99443.31;;;21.19;72.20
73858;BME280;62195;55.030;73.278;2022-07-29T15:10:58;99452.16;;;21.20;72.59
73858;BME280;62195;55.030;73.278;2022-07-29T15:13:36;99450.44;;;21.10;72.02
73858;BME280;62195;55.030;73.278;2022-07-29T15:16:02;99453.91;;;21.03;72.45
73858;BME280;62195;55.030;73.278;2022-07-29T15:18:34;99458.72;;;20.99;71.77